createdAt,value
2022-11-16T00:04:30.131Z,100564.22
2022-11-16T00:09:33.573Z,100557.91
2022-11-16T00:14:40.519Z,100560.38
2022-11-16T00:19:43.631Z,100572.81
2022-11-16T00:24:47.269Z,100566.78
2022-11-16T00:29:52.350Z,100559.47
2022-11-16T00:34:55.627Z,100556.88
2022-11-16T00:39:57.953Z,100568.84
2022-11-16T00:45:01.538Z,100565.09
2022-11-16T00:50:04.025Z,100567.66
2022-11-16T00:55:06.678Z,100559.09
2022-11-16T01:00:11.827Z,100547.13
2022-11-16T01:05:17.343Z,100569.19
2022-11-16T01:10:23.187Z,100555.09
2022-11-16T01:15:28.118Z,100545.22
2022-11-16T01:20:32.506Z,100539.38
2022-11-16T01:25:44.662Z,100545.41
2022-11-16T01:30:49.076Z,100543.63
2022-11-16T01:35:53.817Z,100552.22
2022-11-16T01:40:57.388Z,100535.84
2022-11-16T01:46:01.154Z,100555.66
2022-11-16T01:51:09.781Z,100557.09
2022-11-16T01:56:13.211Z,100569.56
2022-11-16T02:05:33.879Z,100566.78
2022-11-16T02:11:04.935Z,100564.03
2022-11-16T02:16:38.875Z,100565.31
2022-11-16T02:22:01.242Z,100558.00
2022-11-16T02:27:16.048Z,100559.44
2022-11-16T02:32:36.463Z,100557.81
2022-11-16T02:37:45.077Z,100547.44
2022-11-16T02:43:01.833Z,100553.25
2022-11-16T02:48:14.904Z,100553.56
2022-11-16T02:53:20.606Z,100551.13
2022-11-16T02:58:26.089Z,100543.19
2022-11-16T03:03:43.749Z,100541.88
2022-11-16T03:08:55.357Z,100531.19
2022-11-16T03:14:11.360Z,100541.88
2022-11-16T03:19:23.594Z,100527.81
2022-11-16T03:29:56.382Z,100546.44
2022-11-16T03:35:14.811Z,100548.06
2022-11-16T03:40:19.825Z,100532.03
2022-11-16T03:45:25.633Z,100523.78
2022-11-16T03:50:30.367Z,100521.34
2022-11-16T03:55:33.661Z,100526.34
2022-11-16T04:00:40.900Z,100513.22
2022-11-16T04:08:05.934Z,100515.47
2022-11-16T04:13:51.362Z,100516.13
2022-11-16T04:19:16.838Z,100528.56
2022-11-16T04:24:27.119Z,100540.22
2022-11-16T04:29:37.411Z,100532.09
2022-11-16T04:35:11.106Z,100522.84
2022-11-16T04:40:21.886Z,100532.31
2022-11-16T04:45:47.756Z,100532.94
2022-11-16T04:50:54.661Z,100533.59
2022-11-16T04:56:01.860Z,100537.97
2022-11-16T05:01:11.736Z,100534.72
2022-11-16T05:06:20.019Z,100534.22
2022-11-16T05:11:34.860Z,100547.97
2022-11-16T05:17:04.778Z,100548.28
2022-11-16T05:22:12.186Z,100539.72
2022-11-16T05:27:20.752Z,100526.44
2022-11-16T05:32:31.069Z,100535.22
2022-11-16T05:37:40.249Z,100537.66
2022-11-16T05:42:48.289Z,100530.19
2022-11-16T05:47:56.968Z,100541.72
2022-11-16T05:53:02.501Z,100543.34
2022-11-16T05:58:09.202Z,100539.16
2022-11-16T06:08:41.815Z,100550.88
2022-11-16T06:13:50.368Z,100561.25
2022-11-16T06:19:00.806Z,100575.50
2022-11-16T06:24:10.181Z,100591.41
2022-11-16T06:29:24.971Z,100581.38
2022-11-16T06:34:43.907Z,100573.63
2022-11-16T06:39:51.774Z,100589.81
2022-11-16T06:45:00.810Z,100587.06
2022-11-16T06:50:21.469Z,100583.00
2022-11-16T06:55:30.166Z,100575.88
2022-11-16T07:00:41.157Z,100596.78
2022-11-16T07:05:47.874Z,100596.16
2022-11-16T07:11:16.191Z,100573.16
2022-11-16T07:16:21.440Z,100575.16
2022-11-16T07:21:40.237Z,100575.34
2022-11-16T07:26:53.093Z,100577.94
2022-11-16T07:32:05.034Z,100592.91
2022-11-16T07:37:51.015Z,100596.34
2022-11-16T07:43:05.502Z,100616.00
2022-11-16T07:48:29.291Z,100624.31
2022-11-16T07:54:02.149Z,100644.16
2022-11-16T07:59:13.535Z,100654.78
2022-11-16T08:04:26.367Z,100650.09
2022-11-16T08:09:32.226Z,100656.63
2022-11-16T08:14:40.007Z,100667.84
2022-11-16T08:19:47.796Z,100659.63
2022-11-16T08:24:59.182Z,100665.66
2022-11-16T08:36:02.888Z,100665.56
2022-11-16T08:41:14.442Z,100673.94
2022-11-16T08:46:22.700Z,100673.72
2022-11-16T08:51:42.759Z,100681.03
2022-11-16T08:56:45.849Z,100672.25
2022-11-16T09:01:55.496Z,100675.22
2022-11-16T09:07:03.483Z,100679.84
2022-11-16T09:12:07.496Z,100679.88
2022-11-16T09:17:22.785Z,100672.44
2022-11-16T09:22:35.877Z,100671.44
2022-11-16T09:27:45.033Z,100667.69
2022-11-16T09:32:48.612Z,100661.41
2022-11-16T09:37:56.089Z,100658.38
2022-11-16T09:43:24.893Z,100659.97
2022-11-16T09:48:30.032Z,100658.06
2022-11-16T09:53:47.843Z,100655.28
2022-11-16T09:59:18.559Z,100646.69
2022-11-16T10:04:44.040Z,100651.88
2022-11-16T10:09:53.630Z,100659.47
2022-11-16T10:15:33.318Z,100655.03
2022-11-16T10:21:24.501Z,100662.56
2022-11-16T10:26:48.725Z,100653.06
2022-11-16T10:32:35.898Z,100652.94
2022-11-16T10:37:48.487Z,100653.53
2022-11-16T10:43:41.179Z,100638.59
2022-11-16T10:49:43.374Z,100627.53
2022-11-16T10:54:53.659Z,100627.66
2022-11-16T11:00:12.674Z,100618.94
2022-11-16T11:05:30.637Z,100607.69
2022-11-16T11:10:44.458Z,100606.06
2022-11-16T11:15:54.273Z,100601.03
2022-11-16T11:21:34.867Z,100587.09
2022-11-16T11:26:55.678Z,100583.06
2022-11-16T11:32:24.154Z,100574.63
2022-11-16T11:37:41.340Z,100565.09
2022-11-16T11:43:04.970Z,100540.47
2022-11-16T11:54:11.539Z,100516.28
2022-11-16T11:59:25.939Z,100517.28
2022-11-16T12:05:15.255Z,100513.53
2022-11-16T12:10:27.831Z,100500.91
2022-11-16T12:16:02.646Z,100490.97
2022-11-16T12:21:28.010Z,100483.44
2022-11-16T12:27:21.201Z,100460.19
2022-11-16T12:32:51.105Z,100459.84
2022-11-16T12:38:14.600Z,100452.22
2022-11-16T12:43:58.654Z,100461.00
2022-11-16T12:49:44.411Z,100454.41
2022-11-16T12:55:26.866Z,100465.44
2022-11-16T13:00:41.828Z,100452.44
2022-11-16T13:06:19.271Z,100448.44
2022-11-16T13:11:40.632Z,100445.94
2022-11-16T13:16:49.911Z,100440.38
2022-11-16T13:22:18.335Z,100435.72
2022-11-16T13:34:08.746Z,100421.63
2022-11-16T13:40:17.108Z,100429.16
2022-11-16T13:45:23.617Z,100411.56
2022-11-16T13:50:37.530Z,100407.84
2022-11-16T13:55:54.589Z,100409.53
2022-11-16T14:01:12.297Z,100405.47
2022-11-16T14:06:27.835Z,100394.06
2022-11-16T14:11:40.571Z,100401.69
2022-11-16T14:16:48.631Z,100395.13
2022-11-16T14:22:07.449Z,100394.31
2022-11-16T14:27:37.152Z,100387.81
2022-11-16T14:32:55.762Z,100381.63
2022-11-16T14:38:32.070Z,100378.28
2022-11-16T14:43:49.922Z,100376.47
2022-11-16T14:49:00.029Z,100377.63
2022-11-16T14:54:17.435Z,100373.59
2022-11-16T14:59:21.954Z,100376.13
2022-11-16T15:04:30.474Z,100370.56
2022-11-16T15:09:51.297Z,100365.28
2022-11-16T15:15:16.200Z,100362.03
2022-11-16T15:20:27.813Z,100361.59
2022-11-16T15:25:53.507Z,100343.94
2022-11-16T15:31:14.003Z,100339.38
2022-11-16T15:42:08.627Z,100343.66
2022-11-16T15:47:17.219Z,100328.16
2022-11-16T15:52:50.458Z,100331.59
2022-11-16T15:58:28.245Z,100333.56
2022-11-16T16:04:08.687Z,100340.66
2022-11-16T16:09:28.396Z,100352.03
2022-11-16T16:14:57.549Z,100346.47
2022-11-16T16:20:08.191Z,100355.69
2022-11-16T16:25:32.694Z,100360.44
2022-11-16T16:30:40.690Z,100379.22
2022-11-16T16:35:56.157Z,100359.13
2022-11-16T16:41:08.351Z,100362.44
2022-11-16T16:46:17.853Z,100362.16
2022-11-16T16:51:27.055Z,100366.28
2022-11-16T16:56:42.624Z,100359.31
2022-11-16T17:01:52.416Z,100359.50
2022-11-16T17:06:58.907Z,100350.28
2022-11-16T17:12:13.274Z,100342.19
2022-11-16T17:17:30.684Z,100352.28
2022-11-16T17:22:36.227Z,100376.88
2022-11-16T17:27:46.281Z,100377.88
2022-11-16T17:32:55.889Z,100376.94
2022-11-16T17:38:00.494Z,100386.22
2022-11-16T17:43:05.082Z,100375.00
2022-11-16T17:48:18.886Z,100368.88
2022-11-16T17:53:32.350Z,100367.44
2022-11-16T18:03:56.856Z,100361.63
2022-11-16T18:09:07.599Z,100354.00
2022-11-16T18:14:25.714Z,100353.06
2022-11-16T18:19:35.935Z,100332.78
2022-11-16T18:24:45.556Z,100337.63
2022-11-16T18:29:52.851Z,100330.50
2022-11-16T18:35:22.930Z,100337.34
2022-11-16T18:40:32.292Z,100335.88
2022-11-16T18:45:35.580Z,100334.13
2022-11-16T18:50:41.543Z,100338.69
2022-11-16T18:55:57.855Z,100344.38
2022-11-16T19:01:07.296Z,100335.47
2022-11-16T19:06:22.459Z,100340.84
2022-11-16T19:11:35.064Z,100347.84
2022-11-16T19:16:58.298Z,100338.41
2022-11-16T19:22:07.515Z,100338.56
2022-11-16T19:27:14.744Z,100340.19
2022-11-16T19:32:21.952Z,100327.69
2022-11-16T19:37:28.335Z,100323.13
2022-11-16T19:42:36.288Z,100322.63
2022-11-16T19:47:52.519Z,100303.31
2022-11-16T19:53:03.848Z,100315.81
2022-11-16T19:58:19.709Z,100316.16
2022-11-16T20:03:23.185Z,100314.88
2022-11-16T20:08:32.616Z,100310.00
2022-11-16T20:13:39.686Z,100311.16
2022-11-16T20:18:44.132Z,100313.09
2022-11-16T20:23:49.878Z,100313.09
2022-11-16T20:28:57.992Z,100318.63
2022-11-16T20:34:07.880Z,100313.91
2022-11-16T20:39:23.699Z,100317.16
2022-11-16T20:44:29.776Z,100318.78
2022-11-16T20:49:55.941Z,100325.09
2022-11-16T20:55:06.381Z,100308.53
2022-11-16T21:00:12.457Z,100312.91
2022-11-16T21:05:14.693Z,100321.19
2022-11-16T21:10:21.087Z,100317.28
2022-11-16T21:15:26.493Z,100308.53
2022-11-16T21:20:40.351Z,100308.53
2022-11-16T21:25:46.800Z,100313.59
2022-11-16T21:31:03.010Z,100317.97
2022-11-16T21:36:31.971Z,100325.09
2022-11-16T21:41:39.592Z,100329.16
2022-11-16T21:46:44.185Z,100323.63
2022-11-16T21:51:58.374Z,100326.06
2022-11-16T21:57:00.301Z,100317.78
2022-11-16T22:02:03.131Z,100315.00
2022-11-16T22:07:27.092Z,100326.06
2022-11-16T22:12:34.559Z,100309.50
2022-11-16T22:17:49.437Z,100317.28
2022-11-16T22:22:53.367Z,100332.22
2022-11-16T22:28:19.841Z,100306.91
2022-11-16T22:33:21.879Z,100305.63
2022-11-16T22:38:31.255Z,100314.25
2022-11-16T22:43:38.933Z,100313.75
2022-11-16T22:48:51.815Z,100306.16
2022-11-16T22:54:07.300Z,100298.53
2022-11-16T22:59:13.779Z,100313.00
2022-11-16T23:04:27.654Z,100307.66
2022-11-16T23:09:33.846Z,100304.72
2022-11-16T23:14:58.862Z,100319.00
2022-11-16T23:20:24.818Z,100307.81
2022-11-16T23:25:52.018Z,100300.53
2022-11-16T23:31:17.528Z,100301.19
2022-11-16T23:36:23.071Z,100305.75
2022-11-16T23:41:51.180Z,100308.84
2022-11-16T23:46:56.443Z,100312.41
2022-11-16T23:52:12.726Z,100320.66
2022-11-16T23:57:24.915Z,100305.59
